createdAt,value
2019-03-13T00:01:52.139Z,0.80
2019-03-13T00:04:24.623Z,0.83
2019-03-13T00:06:58.196Z,0.97
2019-03-13T00:09:28.953Z,0.83
2019-03-13T00:12:00.789Z,0.70
2019-03-13T00:14:32.980Z,0.97
2019-03-13T00:17:04.845Z,0.87
2019-03-13T00:19:36.425Z,0.80
2019-03-13T00:22:10.955Z,1.17
2019-03-13T00:24:41.522Z,1.03
2019-03-13T00:27:11.858Z,1.10
2019-03-13T00:29:44.212Z,0.90
2019-03-13T00:32:14.546Z,1.00
2019-03-13T00:34:46.956Z,1.27
2019-03-13T00:37:17.794Z,1.00
2019-03-13T00:39:50.374Z,0.90
2019-03-13T00:42:20.770Z,0.90
2019-03-13T00:44:51.163Z,0.80
2019-03-13T00:47:24.343Z,0.77
2019-03-13T00:49:55.731Z,1.00
2019-03-13T00:52:28.246Z,0.90
2019-03-13T00:54:58.994Z,1.03
2019-03-13T00:57:31.444Z,0.93
2019-03-13T01:00:01.919Z,1.00
2019-03-13T01:02:45.098Z,0.87
2019-03-13T01:05:19.693Z,0.90
2019-03-13T01:07:50.137Z,1.03
2019-03-13T01:10:21.957Z,1.00
2019-03-13T01:12:52.650Z,1.00
2019-03-13T01:15:23.054Z,0.83
2019-03-13T01:17:55.224Z,1.03
2019-03-13T01:20:25.608Z,1.00
2019-03-13T01:22:56.337Z,1.10
2019-03-13T01:25:26.752Z,1.20
2019-03-13T01:27:57.537Z,0.80
2019-03-13T01:30:30.454Z,1.17
2019-03-13T01:33:08.825Z,1.07
2019-03-13T01:35:42.942Z,1.00
2019-03-13T01:38:14.248Z,0.80
2019-03-13T01:40:46.120Z,0.80
2019-03-13T01:43:18.339Z,1.10
2019-03-13T01:45:48.719Z,1.10
2019-03-13T01:48:19.333Z,0.90
2019-03-13T01:50:49.876Z,1.00
2019-03-13T01:53:22.047Z,0.87
2019-03-13T01:55:52.862Z,1.00
2019-03-13T01:58:23.495Z,1.00
2019-03-13T02:00:53.880Z,0.80
2019-03-13T02:03:25.366Z,1.00
2019-03-13T02:05:55.774Z,1.00
2019-03-13T02:08:28.405Z,1.00
2019-03-13T02:11:00.588Z,1.10
2019-03-13T02:13:36.037Z,1.17
2019-03-13T02:16:06.333Z,1.10
2019-03-13T02:18:39.612Z,0.90
2019-03-13T02:21:10.099Z,1.03
2019-03-13T02:23:41.166Z,0.73
2019-03-13T02:26:11.930Z,0.90
2019-03-13T02:28:42.647Z,1.00
2019-03-13T02:31:14.351Z,0.80
2019-03-13T02:33:45.957Z,0.80
2019-03-13T02:36:16.333Z,0.70
2019-03-13T02:38:46.820Z,0.77
2019-03-13T02:41:17.198Z,0.90
2019-03-13T02:43:49.125Z,0.70
2019-03-13T02:46:19.898Z,0.80
2019-03-13T02:48:50.275Z,0.60
2019-03-13T02:51:20.645Z,0.50
2019-03-13T02:53:51.092Z,0.70
2019-03-13T02:56:21.658Z,0.60
2019-03-13T02:58:53.175Z,0.50
2019-03-13T03:01:31.690Z,0.50
2019-03-13T03:04:04.315Z,0.50
2019-03-13T03:06:37.472Z,0.60
2019-03-13T03:09:09.143Z,0.40
2019-03-13T03:11:41.113Z,0.50
2019-03-13T03:14:11.593Z,0.40
2019-03-13T03:16:43.820Z,0.40
2019-03-13T03:19:14.196Z,0.40
2019-03-13T03:21:45.464Z,0.50
2019-03-13T03:24:15.891Z,0.40
2019-03-13T03:26:48.246Z,0.40
2019-03-13T03:29:18.962Z,0.40
2019-03-13T03:31:49.479Z,0.30
2019-03-13T03:34:20.981Z,0.40
2019-03-13T03:36:52.966Z,0.40
2019-03-13T03:39:23.362Z,0.40
2019-03-13T03:41:53.755Z,0.37
2019-03-13T03:44:24.479Z,0.40
2019-03-13T03:46:56.660Z,0.47
2019-03-13T03:49:28.141Z,0.40
2019-03-13T03:51:58.493Z,0.40
2019-03-13T03:54:29.669Z,0.50
2019-03-13T03:57:00.002Z,0.50
2019-03-13T03:59:32.190Z,0.40
2019-03-13T04:02:02.608Z,0.50
2019-03-13T04:04:33.145Z,0.40
2019-03-13T04:07:05.752Z,0.40
2019-03-13T04:09:36.573Z,0.40
2019-03-13T04:12:10.102Z,0.40
2019-03-13T04:14:41.917Z,0.50
2019-03-13T04:17:12.179Z,0.40
2019-03-13T04:19:42.758Z,0.50
2019-03-13T04:22:14.314Z,0.50
2019-03-13T04:24:46.897Z,0.40
2019-03-13T04:27:17.279Z,0.60
2019-03-13T04:29:47.654Z,0.50
2019-03-13T04:32:18.938Z,0.50
2019-03-13T04:34:49.705Z,0.70
2019-03-13T04:37:20.645Z,0.50
2019-03-13T04:39:51.608Z,0.50
2019-03-13T04:42:23.706Z,0.40
2019-03-13T04:44:55.538Z,0.50
2019-03-13T04:47:25.902Z,0.60
2019-03-13T04:49:56.266Z,0.60
2019-03-13T04:52:26.775Z,0.50
2019-03-13T04:54:57.160Z,0.50
2019-03-13T04:57:27.942Z,0.60
2019-03-13T04:59:59.354Z,0.40
2019-03-13T05:02:30.906Z,0.60
2019-03-13T05:05:03.035Z,0.57
2019-03-13T05:07:36.161Z,0.60
2019-03-13T05:10:07.903Z,0.50
2019-03-13T05:12:38.464Z,0.50
2019-03-13T05:15:09.130Z,0.60
2019-03-13T05:17:39.448Z,0.50
2019-03-13T05:20:13.847Z,0.60
2019-03-13T05:22:47.940Z,0.50
2019-03-13T05:25:19.382Z,0.60
2019-03-13T05:27:49.907Z,0.70
2019-03-13T05:30:20.713Z,0.57
2019-03-13T05:32:51.446Z,0.70
2019-03-13T05:35:21.853Z,0.70
2019-03-13T05:37:52.423Z,0.70
2019-03-13T05:40:22.914Z,0.60
2019-03-13T05:42:53.770Z,0.73
2019-03-13T05:45:24.235Z,0.80
2019-03-13T05:47:54.938Z,0.87
2019-03-13T05:50:25.672Z,0.63
2019-03-13T05:52:56.395Z,0.80
2019-03-13T05:55:28.319Z,0.50
2019-03-13T05:57:59.166Z,0.60
2019-03-13T06:00:30.451Z,0.70
2019-03-13T06:03:01.977Z,0.80
2019-03-13T06:05:32.753Z,0.90
2019-03-13T06:08:05.406Z,0.87
2019-03-13T06:10:35.854Z,0.70
2019-03-13T06:13:06.582Z,0.70
2019-03-13T06:15:36.977Z,0.70
2019-03-13T06:18:09.804Z,0.80
2019-03-13T06:20:40.126Z,0.87
2019-03-13T06:23:11.165Z,0.60
2019-03-13T06:25:41.591Z,0.80
2019-03-13T06:28:12.034Z,0.70
2019-03-13T06:30:42.458Z,0.63
2019-03-13T06:33:13.229Z,0.80
2019-03-13T06:35:43.567Z,0.73
2019-03-13T06:38:14.121Z,0.70
2019-03-13T06:40:45.273Z,0.90
2019-03-13T06:43:16.156Z,0.80
2019-03-13T06:45:48.469Z,0.87
2019-03-13T06:48:18.894Z,0.87
2019-03-13T06:50:49.510Z,0.70
2019-03-13T06:53:21.634Z,0.67
2019-03-13T06:55:52.109Z,0.50
2019-03-13T06:58:33.367Z,0.67
2019-03-13T07:01:20.757Z,0.87
2019-03-13T07:04:25.562Z,0.90
2019-03-13T07:07:23.869Z,0.70
2019-03-13T07:10:00.598Z,0.60
2019-03-13T07:12:49.047Z,0.60
2019-03-13T07:15:45.884Z,0.60
2019-03-13T07:18:30.603Z,0.50
2019-03-13T07:21:28.988Z,0.57
2019-03-13T07:24:25.626Z,0.40
2019-03-13T07:27:01.198Z,0.50
2019-03-13T07:29:56.587Z,0.40
2019-03-13T07:32:44.867Z,0.50
2019-03-13T07:35:26.656Z,0.43
2019-03-13T07:38:22.243Z,0.40
2019-03-13T07:41:10.623Z,0.40
2019-03-13T07:43:58.908Z,0.40
2019-03-13T07:46:47.189Z,0.57
2019-03-13T07:49:27.611Z,0.60
2019-03-13T07:52:19.992Z,0.50
2019-03-13T07:55:09.257Z,0.53
2019-03-13T07:57:58.215Z,0.60
2019-03-13T08:00:48.169Z,0.60
2019-03-13T08:03:36.859Z,0.40
2019-03-13T08:06:26.437Z,0.40
2019-03-13T08:09:24.823Z,0.40
2019-03-13T08:12:13.209Z,0.50
2019-03-13T08:15:11.820Z,0.30
2019-03-13T08:17:57.836Z,0.40
2019-03-13T08:20:41.385Z,0.50
2019-03-13T08:23:34.237Z,0.40
2019-03-13T08:26:26.292Z,0.50
2019-03-13T08:29:28.383Z,0.60
2019-03-13T08:32:10.386Z,0.70
2019-03-13T08:35:04.265Z,0.60
2019-03-13T08:37:59.869Z,0.60
2019-03-13T08:40:49.320Z,0.50
2019-03-13T08:43:34.191Z,0.57
2019-03-13T08:46:14.491Z,0.60
2019-03-13T08:49:06.560Z,0.57
2019-03-13T08:51:59.328Z,0.50
2019-03-13T08:54:48.901Z,0.50
2019-03-13T08:57:48.941Z,0.57
2019-03-13T09:00:30.928Z,0.50
2019-03-13T09:03:26.198Z,0.57
2019-03-13T09:06:03.566Z,0.60
2019-03-13T09:09:03.025Z,0.60
2019-03-13T09:12:01.135Z,0.60
2019-03-13T09:14:50.502Z,0.80
2019-03-13T09:17:38.790Z,0.60
2019-03-13T09:20:31.180Z,0.40
2019-03-13T09:23:26.984Z,0.67
2019-03-13T09:26:14.882Z,0.50
2019-03-13T09:28:55.594Z,0.40
2019-03-13T09:31:48.462Z,0.50
2019-03-13T09:34:37.002Z,0.50
2019-03-13T09:37:29.458Z,0.60
2019-03-13T09:40:31.458Z,0.50
2019-03-13T09:43:23.904Z,0.40
2019-03-13T09:46:09.996Z,0.50
2019-03-13T09:48:50.868Z,0.40
2019-03-13T09:51:45.049Z,0.67
2019-03-13T09:54:38.348Z,0.60
2019-03-13T09:57:20.170Z,0.60
2019-03-13T10:00:16.369Z,0.40
2019-03-13T10:02:57.535Z,0.60
2019-03-13T10:06:05.338Z,0.60
2019-03-13T10:09:00.778Z,0.60
2019-03-13T10:11:55.229Z,0.40
2019-03-13T10:14:46.284Z,0.50
2019-03-13T10:17:35.882Z,0.70
2019-03-13T10:20:28.740Z,0.60
2019-03-13T10:23:17.655Z,0.40
2019-03-13T10:26:02.295Z,0.67
2019-03-13T10:28:51.935Z,0.60
2019-03-13T10:31:40.181Z,0.60
2019-03-13T10:34:43.435Z,0.50
2019-03-13T10:37:41.523Z,0.70
2019-03-13T10:40:31.135Z,0.57
2019-03-13T10:43:21.957Z,0.50
2019-03-13T10:46:17.405Z,0.60
2019-03-13T10:49:08.971Z,0.50
2019-03-13T10:51:48.005Z,0.53
2019-03-13T10:54:28.008Z,0.57
2019-03-13T10:57:29.435Z,0.57
2019-03-13T11:00:18.074Z,0.53
2019-03-13T11:02:55.727Z,0.80
2019-03-13T11:05:58.404Z,0.50
2019-03-13T11:08:42.598Z,0.50
2019-03-13T11:11:18.443Z,0.60
2019-03-13T11:14:23.501Z,0.37
2019-03-13T11:17:13.177Z,0.40
2019-03-13T11:20:21.393Z,0.30
2019-03-13T11:23:09.937Z,0.40
2019-03-13T11:25:59.850Z,0.57
2019-03-13T11:28:53.689Z,0.67
2019-03-13T11:31:57.301Z,0.50
2019-03-13T11:34:53.150Z,0.60
2019-03-13T11:37:40.650Z,0.70
2019-03-13T11:40:22.998Z,0.40
2019-03-13T11:43:11.448Z,0.70
2019-03-13T11:46:01.806Z,0.50
2019-03-13T11:48:43.725Z,0.57
2019-03-13T11:51:40.442Z,0.40
2019-03-13T11:54:29.385Z,0.50
2019-03-13T11:57:35.401Z,0.43
2019-03-13T12:00:41.629Z,0.57
2019-03-13T12:03:39.992Z,0.50
2019-03-13T12:06:28.580Z,0.50
2019-03-13T12:09:21.412Z,0.43
2019-03-13T12:12:10.447Z,0.40
2019-03-13T12:15:08.689Z,0.50
2019-03-13T12:17:55.299Z,0.50
2019-03-13T12:20:33.427Z,0.50
2019-03-13T12:23:14.797Z,0.70
2019-03-13T12:25:57.025Z,0.60
2019-03-13T12:28:45.097Z,0.60
2019-03-13T12:31:37.800Z,0.70
2019-03-13T12:34:17.530Z,0.50
2019-03-13T12:37:09.982Z,0.63
2019-03-13T12:40:12.512Z,0.80
2019-03-13T12:43:05.714Z,0.60
2019-03-13T12:46:01.256Z,0.63
2019-03-13T12:48:55.841Z,0.60
2019-03-13T12:51:58.194Z,1.67
2019-03-13T12:55:03.928Z,0.90
2019-03-13T12:57:56.082Z,0.70
2019-03-13T13:00:57.474Z,0.60
2019-03-13T13:03:42.962Z,0.70
2019-03-13T13:06:33.553Z,0.67
2019-03-13T13:09:28.688Z,0.60
2019-03-13T13:12:11.849Z,0.60
2019-03-13T13:14:57.944Z,0.60
2019-03-13T13:17:37.934Z,0.70
2019-03-13T13:20:10.734Z,0.80
2019-03-13T13:22:41.427Z,0.60
2019-03-13T13:25:13.413Z,0.80
2019-03-13T13:27:44.362Z,0.80
2019-03-13T13:30:16.010Z,0.70
2019-03-13T13:32:46.463Z,0.67
2019-03-13T13:35:16.913Z,0.50
2019-03-13T13:37:48.860Z,0.70
2019-03-13T13:40:19.298Z,0.60
2019-03-13T13:42:51.278Z,0.73
2019-03-13T13:45:54.233Z,0.70
2019-03-13T13:48:26.471Z,0.57
2019-03-13T13:50:57.122Z,0.80
2019-03-13T13:53:29.668Z,0.77
2019-03-13T13:56:00.100Z,0.60
2019-03-13T13:58:36.709Z,0.70
2019-03-13T14:01:07.377Z,0.70
2019-03-13T14:03:37.764Z,0.60
2019-03-13T14:06:08.563Z,0.70
2019-03-13T14:08:40.034Z,0.60
2019-03-13T14:11:12.237Z,0.70
2019-03-13T14:13:42.649Z,0.73
2019-03-13T14:16:13.556Z,1.00
2019-03-13T14:18:44.596Z,0.87
2019-03-13T14:21:15.025Z,0.60
2019-03-13T14:23:46.575Z,0.87
2019-03-13T14:26:17.435Z,1.03
2019-03-13T14:28:47.898Z,0.70
2019-03-13T14:31:18.341Z,0.70
2019-03-13T14:33:50.522Z,0.67
2019-03-13T14:36:22.366Z,0.73
2019-03-13T14:38:53.954Z,0.80
2019-03-13T14:41:26.516Z,0.60
2019-03-13T14:43:58.218Z,0.73
2019-03-13T14:46:28.695Z,0.70
2019-03-13T14:48:59.125Z,0.97
2019-03-13T14:51:32.777Z,2.10
2019-03-13T14:54:05.222Z,0.70
2019-03-13T14:56:35.984Z,0.70
2019-03-13T14:59:06.384Z,0.60
2019-03-13T15:01:38.449Z,1.00
2019-03-13T15:04:10.223Z,0.83
2019-03-13T15:06:41.199Z,0.67
2019-03-13T15:09:11.626Z,0.50
2019-03-13T15:11:44.065Z,0.80
2019-03-13T15:14:15.496Z,0.60
2019-03-13T15:16:46.331Z,0.60
2019-03-13T15:19:16.545Z,0.60
2019-03-13T15:21:47.374Z,0.80
2019-03-13T15:24:18.871Z,0.57
2019-03-13T15:26:49.270Z,0.87
2019-03-13T15:29:20.416Z,0.80
2019-03-13T15:31:53.618Z,0.70
2019-03-13T15:34:24.644Z,0.70
2019-03-13T15:36:56.075Z,0.83
2019-03-13T15:39:27.866Z,1.00
2019-03-13T15:42:00.044Z,1.00
2019-03-13T15:44:32.504Z,1.20
2019-03-13T15:47:02.907Z,1.50
2019-03-13T15:49:33.408Z,1.10
2019-03-13T15:52:04.495Z,1.10
2019-03-13T15:54:35.312Z,1.20
2019-03-13T15:57:06.640Z,0.90
2019-03-13T15:59:38.789Z,1.50
2019-03-13T16:02:09.806Z,1.00
2019-03-13T16:04:40.688Z,0.83
2019-03-13T16:07:13.014Z,1.00
2019-03-13T16:09:43.732Z,1.10
2019-03-13T16:12:14.488Z,0.80
2019-03-13T16:14:44.874Z,0.90
2019-03-13T16:17:15.613Z,1.10
2019-03-13T16:19:46.695Z,0.90
2019-03-13T16:22:18.349Z,1.00
2019-03-13T16:24:48.725Z,1.00
2019-03-13T16:27:19.930Z,0.80
2019-03-13T16:29:50.960Z,0.80
2019-03-13T16:32:22.374Z,1.00
2019-03-13T16:34:53.129Z,1.00
2019-03-13T16:37:23.508Z,0.93
2019-03-13T16:39:55.365Z,1.20
2019-03-13T16:42:25.848Z,1.00
2019-03-13T16:44:56.492Z,0.90
2019-03-13T16:47:26.853Z,1.10
2019-03-13T16:49:57.216Z,1.00
2019-03-13T16:52:29.131Z,0.83
2019-03-13T16:54:59.839Z,0.90
2019-03-13T16:57:30.282Z,0.83
2019-03-13T17:00:01.512Z,1.17
2019-03-13T17:02:33.663Z,0.90
2019-03-13T17:05:04.201Z,0.90
2019-03-13T17:07:35.870Z,0.90
2019-03-13T17:10:06.820Z,0.83
2019-03-13T17:12:37.586Z,1.03
2019-03-13T17:15:11.010Z,0.70
2019-03-13T17:17:41.559Z,0.80
2019-03-13T17:20:15.237Z,0.83
2019-03-13T17:22:46.206Z,0.90
2019-03-13T17:25:17.610Z,0.63
2019-03-13T17:27:48.426Z,0.70
2019-03-13T17:30:21.020Z,0.60
2019-03-13T17:32:51.427Z,1.10
2019-03-13T17:35:23.382Z,0.90
2019-03-13T17:37:55.234Z,0.67
2019-03-13T17:40:25.625Z,0.87
2019-03-13T17:42:56.611Z,0.70
2019-03-13T17:45:26.990Z,0.83
2019-03-13T17:47:57.472Z,0.93
2019-03-13T17:50:27.845Z,0.80
2019-03-13T17:53:02.316Z,0.90
2019-03-13T17:55:33.261Z,1.17
2019-03-13T17:58:04.341Z,1.20
2019-03-13T18:00:41.373Z,1.20
2019-03-13T18:03:11.682Z,1.07
2019-03-13T18:05:42.179Z,1.07
2019-03-13T18:08:12.629Z,1.03
2019-03-13T18:10:45.228Z,1.20
2019-03-13T18:13:16.346Z,1.70
2019-03-13T18:15:48.133Z,1.20
2019-03-13T18:18:18.525Z,1.33
2019-03-13T18:20:48.954Z,1.10
2019-03-13T18:23:19.409Z,1.03
2019-03-13T18:25:50.150Z,0.80
2019-03-13T18:28:20.505Z,1.20
2019-03-13T18:30:51.318Z,1.00
2019-03-13T18:33:22.998Z,0.80
2019-03-13T18:35:55.065Z,0.77
2019-03-13T18:38:25.791Z,1.13
2019-03-13T18:40:56.738Z,0.80
2019-03-13T18:43:27.554Z,0.90
2019-03-13T18:45:58.177Z,0.70
2019-03-13T18:48:28.901Z,0.90
2019-03-13T18:51:01.189Z,0.90
2019-03-13T18:53:31.923Z,0.83
2019-03-13T18:56:03.480Z,0.80
2019-03-13T18:58:35.606Z,0.60
2019-03-13T19:01:06.262Z,1.37
2019-03-13T19:03:37.028Z,0.80
2019-03-13T19:06:09.212Z,0.70
2019-03-13T19:08:40.019Z,1.00
2019-03-13T19:11:10.396Z,1.00
2019-03-13T19:13:42.302Z,0.90
2019-03-13T19:16:14.081Z,1.00
2019-03-13T19:18:45.922Z,1.10
2019-03-13T19:21:19.329Z,1.00
2019-03-13T19:23:49.717Z,0.87
2019-03-13T19:26:20.680Z,1.10
2019-03-13T19:28:51.468Z,1.20
2019-03-13T19:31:22.267Z,3.20
2019-03-13T19:33:53.764Z,1.50
2019-03-13T19:36:24.318Z,1.10
2019-03-13T19:38:56.622Z,1.20
2019-03-13T19:41:27.310Z,0.80
2019-03-13T19:43:57.852Z,0.80
2019-03-13T19:46:28.558Z,0.97
2019-03-13T19:48:58.919Z,0.90
2019-03-13T19:51:29.593Z,0.90
2019-03-13T19:53:59.925Z,0.93
2019-03-13T19:56:35.050Z,0.80
2019-03-13T19:59:04.534Z,0.90
2019-03-13T20:01:35.948Z,0.80
2019-03-13T20:04:06.395Z,0.90
2019-03-13T20:06:42.279Z,0.90
2019-03-13T20:09:09.702Z,0.70
2019-03-13T20:11:41.361Z,0.70
2019-03-13T20:14:12.137Z,0.80
2019-03-13T20:16:42.910Z,1.17
2019-03-13T20:19:15.173Z,1.30
2019-03-13T20:21:46.839Z,0.90
2019-03-13T20:24:19.582Z,1.07
2019-03-13T20:26:50.977Z,0.80
2019-03-13T20:29:25.471Z,0.60
2019-03-13T20:31:55.878Z,1.10
2019-03-13T20:34:26.805Z,0.73
2019-03-13T20:36:58.718Z,0.90
2019-03-13T20:39:29.711Z,0.70
2019-03-13T20:42:00.143Z,0.80
2019-03-13T20:44:31.986Z,1.20
2019-03-13T20:47:02.394Z,1.00
2019-03-13T20:49:33.807Z,1.17
2019-03-13T20:52:04.503Z,0.87
2019-03-13T20:54:35.437Z,0.80
2019-03-13T20:57:07.260Z,0.63
2019-03-13T20:59:38.562Z,1.10
2019-03-13T21:02:09.090Z,1.20
2019-03-13T21:04:40.245Z,1.07
2019-03-13T21:07:11.297Z,1.23
2019-03-13T21:09:42.370Z,1.33
2019-03-13T21:12:12.909Z,1.50
2019-03-13T21:14:45.230Z,1.60
2019-03-13T21:17:15.850Z,1.10
2019-03-13T21:19:47.608Z,1.53
2019-03-13T21:22:18.454Z,1.23
2019-03-13T21:24:49.669Z,1.43
2019-03-13T21:27:20.550Z,1.50
2019-03-13T21:29:53.840Z,1.40
2019-03-13T21:32:24.393Z,1.20
2019-03-13T21:34:55.740Z,1.40
2019-03-13T21:37:26.658Z,1.07
2019-03-13T21:39:57.494Z,1.33
2019-03-13T21:42:29.545Z,1.13
2019-03-13T21:45:00.498Z,1.50
2019-03-13T21:47:31.156Z,1.33
2019-03-13T21:50:03.155Z,1.20
2019-03-13T21:52:34.279Z,1.33
2019-03-13T21:55:05.015Z,1.10
2019-03-13T21:57:36.889Z,1.13
2019-03-13T22:00:10.018Z,1.80
2019-03-13T22:02:42.142Z,0.80
2019-03-13T22:05:24.675Z,0.80
2019-03-13T22:07:45.087Z,1.27
2019-03-13T22:10:16.317Z,0.80
2019-03-13T22:12:46.865Z,1.10
2019-03-13T22:15:18.500Z,1.30
2019-03-13T22:17:48.887Z,1.10
2019-03-13T22:20:19.943Z,0.90
2019-03-13T22:22:50.754Z,1.13
2019-03-13T22:25:21.249Z,1.30
2019-03-13T22:27:51.840Z,1.40
2019-03-13T22:30:22.644Z,1.13
2019-03-13T22:32:53.959Z,1.37
2019-03-13T22:35:26.254Z,1.27
2019-03-13T22:37:58.465Z,1.30
2019-03-13T22:40:30.840Z,1.53
2019-03-13T22:43:02.907Z,1.20
2019-03-13T22:45:33.393Z,1.30
2019-03-13T22:48:07.162Z,1.37
2019-03-13T22:50:38.572Z,1.40
2019-03-13T22:53:09.901Z,1.20
2019-03-13T22:55:41.142Z,1.37
2019-03-13T22:58:11.651Z,1.47
2019-03-13T23:01:04.679Z,1.50
2019-03-13T23:03:40.535Z,1.53
2019-03-13T23:06:11.326Z,1.50
2019-03-13T23:08:42.479Z,1.37
2019-03-13T23:11:13.921Z,1.70
2019-03-13T23:13:45.952Z,1.60
2019-03-13T23:16:16.684Z,1.53
2019-03-13T23:18:47.448Z,1.50
2019-03-13T23:21:18.165Z,1.37
2019-03-13T23:23:48.479Z,1.50
2019-03-13T23:26:18.901Z,1.43
2019-03-13T23:28:49.669Z,1.53
2019-03-13T23:31:20.314Z,1.23
2019-03-13T23:33:50.925Z,1.40
2019-03-13T23:36:21.284Z,1.40
2019-03-13T23:38:52.612Z,1.13
2019-03-13T23:41:23.467Z,1.43
2019-03-13T23:43:54.397Z,1.83
2019-03-13T23:46:24.768Z,1.57
2019-03-13T23:48:55.551Z,1.10
2019-03-13T23:51:26.464Z,1.40
2019-03-13T23:53:56.882Z,1.37
2019-03-13T23:56:27.659Z,1.50
2019-03-13T23:59:00.951Z,1.40
